sensor_id;sensor_type;location;lat;lon;timestamp;P1;durP1;ratioP1;P2;durP2;ratioP2
41141;SDS011;63666;52.284;20.890;2023-07-20T00:01:53;5.00;;;2.60;;
41141;SDS011;63666;52.284;20.890;2023-07-20T00:04:29;5.00;;;2.50;;
41141;SDS011;63666;52.284;20.890;2023-07-20T00:07:06;5.20;;;2.90;;
41141;SDS011;63666;52.284;20.890;2023-07-20T00:09:40;4.60;;;2.60;;
41141;SDS011;63666;52.284;20.890;2023-07-20T00:12:15;4.30;;;2.60;;
41141;SDS011;63666;52.284;20.890;2023-07-20T00:14:49;4.60;;;2.60;;
41141;SDS011;63666;52.284;20.890;2023-07-20T00:17:24;5.90;;;2.80;;
41141;SDS011;63666;52.284;20.890;2023-07-20T00:20:01;5.10;;;2.70;;
41141;SDS011;63666;52.284;20.890;2023-07-20T00:22:39;5.20;;;2.70;;
41141;SDS011;63666;52.284;20.890;2023-07-20T00:25:13;5.20;;;2.80;;
41141;SDS011;63666;52.284;20.890;2023-07-20T00:27:47;4.60;;;2.60;;
41141;SDS011;63666;52.284;20.890;2023-07-20T00:30:21;5.20;;;2.70;;
41141;SDS011;63666;52.284;20.890;2023-07-20T00:32:55;4.70;;;2.60;;
41141;SDS011;63666;52.284;20.890;2023-07-20T00:35:32;5.10;;;2.90;;
41141;SDS011;63666;52.284;20.890;2023-07-20T00:38:06;4.70;;;2.40;;
41141;SDS011;63666;52.284;20.890;2023-07-20T00:40:41;4.50;;;2.70;;
41141;SDS011;63666;52.284;20.890;2023-07-20T00:43:15;4.30;;;2.50;;
41141;SDS011;63666;52.284;20.890;2023-07-20T00:45:51;4.80;;;2.80;;
41141;SDS011;63666;52.284;20.890;2023-07-20T00:48:25;5.70;;;2.80;;
41141;SDS011;63666;52.284;20.890;2023-07-20T00:50:59;4.60;;;2.80;;
41141;SDS011;63666;52.284;20.890;2023-07-20T00:53:34;4.60;;;2.80;;
41141;SDS011;63666;52.284;20.890;2023-07-20T00:56:08;4.40;;;2.70;;
41141;SDS011;63666;52.284;20.890;2023-07-20T00:58:43;5.10;;;2.70;;
41141;SDS011;63666;52.284;20.890;2023-07-20T01:01:17;4.90;;;2.70;;
41141;SDS011;63666;52.284;20.890;2023-07-20T01:03:51;4.90;;;2.70;;
41141;SDS011;63666;52.284;20.890;2023-07-20T01:06:33;4.80;;;2.80;;
41141;SDS011;63666;52.284;20.890;2023-07-20T01:09:16;5.40;;;2.90;;
41141;SDS011;63666;52.284;20.890;2023-07-20T01:11:57;5.00;;;2.60;;
41141;SDS011;63666;52.284;20.890;2023-07-20T01:14:35;5.00;;;2.80;;
41141;SDS011;63666;52.284;20.890;2023-07-20T01:17:10;4.50;;;2.80;;
41141;SDS011;63666;52.284;20.890;2023-07-20T01:19:44;5.00;;;2.80;;
41141;SDS011;63666;52.284;20.890;2023-07-20T01:22:27;4.60;;;2.80;;
41141;SDS011;63666;52.284;20.890;2023-07-20T01:25:39;4.90;;;2.90;;
41141;SDS011;63666;52.284;20.890;2023-07-20T01:28:38;4.50;;;2.50;;
41141;SDS011;63666;52.284;20.890;2023-07-20T01:31:31;4.90;;;2.90;;
41141;SDS011;63666;52.284;20.890;2023-07-20T01:34:09;4.50;;;2.80;;
41141;SDS011;63666;52.284;20.890;2023-07-20T01:36:46;5.20;;;3.00;;
41141;SDS011;63666;52.284;20.890;2023-07-20T01:39:22;4.90;;;2.70;;
41141;SDS011;63666;52.284;20.890;2023-07-20T01:41:57;4.70;;;2.80;;
41141;SDS011;63666;52.284;20.890;2023-07-20T01:44:31;4.50;;;2.80;;
41141;SDS011;63666;52.284;20.890;2023-07-20T01:47:06;4.80;;;2.90;;
41141;SDS011;63666;52.284;20.890;2023-07-20T01:49:40;6.40;;;2.80;;
41141;SDS011;63666;52.284;20.890;2023-07-20T01:52:14;5.20;;;2.80;;
41141;SDS011;63666;52.284;20.890;2023-07-20T01:54:48;4.70;;;2.70;;
41141;SDS011;63666;52.284;20.890;2023-07-20T01:57:22;5.40;;;3.20;;
41141;SDS011;63666;52.284;20.890;2023-07-20T01:59:56;5.40;;;3.20;;
41141;SDS011;63666;52.284;20.890;2023-07-20T02:02:30;4.70;;;3.00;;
41141;SDS011;63666;52.284;20.890;2023-07-20T02:05:06;4.90;;;2.90;;
41141;SDS011;63666;52.284;20.890;2023-07-20T02:07:40;4.80;;;3.00;;
41141;SDS011;63666;52.284;20.890;2023-07-20T02:10:17;4.80;;;3.00;;
41141;SDS011;63666;52.284;20.890;2023-07-20T02:12:52;5.10;;;2.90;;
41141;SDS011;63666;52.284;20.890;2023-07-20T02:15:26;6.20;;;3.10;;
41141;SDS011;63666;52.284;20.890;2023-07-20T02:18:00;4.30;;;2.80;;
41141;SDS011;63666;52.284;20.890;2023-07-20T02:20:34;4.80;;;2.90;;
41141;SDS011;63666;52.284;20.890;2023-07-20T02:23:09;4.80;;;3.20;;
41141;SDS011;63666;52.284;20.890;2023-07-20T02:25:43;4.90;;;3.10;;
41141;SDS011;63666;52.284;20.890;2023-07-20T02:28:18;4.80;;;3.10;;
41141;SDS011;63666;52.284;20.890;2023-07-20T02:30:51;5.10;;;3.00;;
41141;SDS011;63666;52.284;20.890;2023-07-20T02:33:26;5.90;;;3.30;;
41141;SDS011;63666;52.284;20.890;2023-07-20T02:35:59;4.90;;;3.30;;
41141;SDS011;63666;52.284;20.890;2023-07-20T02:38:33;4.90;;;3.00;;
41141;SDS011;63666;52.284;20.890;2023-07-20T02:41:07;5.50;;;3.10;;
41141;SDS011;63666;52.284;20.890;2023-07-20T02:43:41;4.50;;;3.00;;
41141;SDS011;63666;52.284;20.890;2023-07-20T02:46:15;4.70;;;3.00;;
41141;SDS011;63666;52.284;20.890;2023-07-20T02:48:49;4.80;;;2.90;;
41141;SDS011;63666;52.284;20.890;2023-07-20T02:51:24;5.00;;;3.20;;
41141;SDS011;63666;52.284;20.890;2023-07-20T02:53:58;5.10;;;2.90;;
41141;SDS011;63666;52.284;20.890;2023-07-20T02:56:32;4.60;;;2.80;;
41141;SDS011;63666;52.284;20.890;2023-07-20T02:59:07;5.00;;;2.90;;
41141;SDS011;63666;52.284;20.890;2023-07-20T03:01:42;4.70;;;3.00;;
41141;SDS011;63666;52.284;20.890;2023-07-20T03:04:15;4.80;;;3.00;;
41141;SDS011;63666;52.284;20.890;2023-07-20T03:06:49;4.70;;;2.60;;
41141;SDS011;63666;52.284;20.890;2023-07-20T03:09:24;4.90;;;3.00;;
41141;SDS011;63666;52.284;20.890;2023-07-20T03:11:58;5.60;;;2.90;;
41141;SDS011;63666;52.284;20.890;2023-07-20T03:14:31;4.50;;;2.80;;
41141;SDS011;63666;52.284;20.890;2023-07-20T03:17:07;5.00;;;3.00;;
41141;SDS011;63666;52.284;20.890;2023-07-20T03:19:41;4.50;;;2.70;;
41141;SDS011;63666;52.284;20.890;2023-07-20T03:22:15;4.70;;;2.80;;
41141;SDS011;63666;52.284;20.890;2023-07-20T03:24:49;4.90;;;2.90;;
41141;SDS011;63666;52.284;20.890;2023-07-20T03:27:23;4.90;;;2.70;;
41141;SDS011;63666;52.284;20.890;2023-07-20T03:29:58;4.50;;;2.90;;
41141;SDS011;63666;52.284;20.890;2023-07-20T03:32:33;5.10;;;2.90;;
41141;SDS011;63666;52.284;20.890;2023-07-20T03:35:09;4.90;;;2.60;;
41141;SDS011;63666;52.284;20.890;2023-07-20T03:37:43;4.50;;;2.80;;
41141;SDS011;63666;52.284;20.890;2023-07-20T03:40:17;4.80;;;2.90;;
41141;SDS011;63666;52.284;20.890;2023-07-20T03:42:54;4.70;;;3.00;;
41141;SDS011;63666;52.284;20.890;2023-07-20T03:45:30;4.80;;;2.80;;
41141;SDS011;63666;52.284;20.890;2023-07-20T03:48:04;4.80;;;3.00;;
41141;SDS011;63666;52.284;20.890;2023-07-20T03:50:38;4.40;;;2.90;;
41141;SDS011;63666;52.284;20.890;2023-07-20T03:53:13;4.90;;;2.70;;
41141;SDS011;63666;52.284;20.890;2023-07-20T03:55:48;4.70;;;2.70;;
41141;SDS011;63666;52.284;20.890;2023-07-20T03:58:22;4.40;;;2.70;;
41141;SDS011;63666;52.284;20.890;2023-07-20T04:01:01;4.60;;;2.70;;
41141;SDS011;63666;52.284;20.890;2023-07-20T04:03:35;5.10;;;3.00;;
41141;SDS011;63666;52.284;20.890;2023-07-20T04:06:10;4.50;;;2.90;;
41141;SDS011;63666;52.284;20.890;2023-07-20T04:08:45;5.00;;;3.00;;
41141;SDS011;63666;52.284;20.890;2023-07-20T04:11:19;4.70;;;2.60;;
41141;SDS011;63666;52.284;20.890;2023-07-20T04:14:14;4.80;;;2.70;;
41141;SDS011;63666;52.284;20.890;2023-07-20T04:16:49;5.00;;;2.80;;
41141;SDS011;63666;52.284;20.890;2023-07-20T04:19:23;4.40;;;2.80;;
41141;SDS011;63666;52.284;20.890;2023-07-20T04:21:57;4.60;;;2.70;;
41141;SDS011;63666;52.284;20.890;2023-07-20T04:24:31;4.60;;;2.90;;
41141;SDS011;63666;52.284;20.890;2023-07-20T04:27:07;5.40;;;2.90;;
41141;SDS011;63666;52.284;20.890;2023-07-20T04:29:44;4.80;;;2.90;;
41141;SDS011;63666;52.284;20.890;2023-07-20T04:32:19;4.90;;;2.90;;
41141;SDS011;63666;52.284;20.890;2023-07-20T04:34:54;6.10;;;3.00;;
41141;SDS011;63666;52.284;20.890;2023-07-20T04:37:28;5.40;;;3.30;;
41141;SDS011;63666;52.284;20.890;2023-07-20T04:40:04;4.90;;;3.20;;
41141;SDS011;63666;52.284;20.890;2023-07-20T04:42:40;5.40;;;3.10;;
41141;SDS011;63666;52.284;20.890;2023-07-20T04:45:17;5.40;;;3.10;;
41141;SDS011;63666;52.284;20.890;2023-07-20T04:47:52;5.00;;;3.00;;
41141;SDS011;63666;52.284;20.890;2023-07-20T04:50:27;5.30;;;3.40;;
41141;SDS011;63666;52.284;20.890;2023-07-20T04:53:01;5.70;;;3.60;;
41141;SDS011;63666;52.284;20.890;2023-07-20T04:55:37;5.40;;;3.10;;
41141;SDS011;63666;52.284;20.890;2023-07-20T04:58:11;5.30;;;3.10;;
41141;SDS011;63666;52.284;20.890;2023-07-20T05:00:46;5.20;;;3.00;;
41141;SDS011;63666;52.284;20.890;2023-07-20T05:03:20;4.40;;;2.80;;
41141;SDS011;63666;52.284;20.890;2023-07-20T05:05:55;5.40;;;3.00;;
41141;SDS011;63666;52.284;20.890;2023-07-20T05:08:31;4.40;;;2.90;;
41141;SDS011;63666;52.284;20.890;2023-07-20T05:11:08;5.30;;;3.20;;
41141;SDS011;63666;52.284;20.890;2023-07-20T05:13:43;4.80;;;3.00;;
41141;SDS011;63666;52.284;20.890;2023-07-20T05:16:17;5.00;;;3.30;;
41141;SDS011;63666;52.284;20.890;2023-07-20T05:18:51;5.80;;;3.10;;
41141;SDS011;63666;52.284;20.890;2023-07-20T05:21:27;5.10;;;3.30;;
41141;SDS011;63666;52.284;20.890;2023-07-20T05:24:01;4.90;;;3.10;;
41141;SDS011;63666;52.284;20.890;2023-07-20T05:26:35;6.00;;;3.20;;
41141;SDS011;63666;52.284;20.890;2023-07-20T05:29:09;5.10;;;3.00;;
41141;SDS011;63666;52.284;20.890;2023-07-20T05:31:43;5.20;;;3.00;;
41141;SDS011;63666;52.284;20.890;2023-07-20T05:34:17;5.20;;;3.10;;
41141;SDS011;63666;52.284;20.890;2023-07-20T05:36:52;5.10;;;2.90;;
41141;SDS011;63666;52.284;20.890;2023-07-20T05:39:26;5.60;;;2.90;;
41141;SDS011;63666;52.284;20.890;2023-07-20T05:42:00;4.90;;;2.60;;
41141;SDS011;63666;52.284;20.890;2023-07-20T05:44:34;5.60;;;3.00;;
41141;SDS011;63666;52.284;20.890;2023-07-20T05:47:11;4.80;;;3.10;;
41141;SDS011;63666;52.284;20.890;2023-07-20T05:49:45;5.20;;;3.20;;
41141;SDS011;63666;52.284;20.890;2023-07-20T05:52:19;5.90;;;3.40;;
41141;SDS011;63666;52.284;20.890;2023-07-20T05:54:53;6.30;;;3.80;;
41141;SDS011;63666;52.284;20.890;2023-07-20T05:57:27;6.00;;;3.60;;
41141;SDS011;63666;52.284;20.890;2023-07-20T06:00:01;5.60;;;3.40;;
41141;SDS011;63666;52.284;20.890;2023-07-20T06:02:37;5.50;;;3.40;;
41141;SDS011;63666;52.284;20.890;2023-07-20T06:05:11;6.20;;;3.50;;
41141;SDS011;63666;52.284;20.890;2023-07-20T06:07:46;5.00;;;3.00;;
41141;SDS011;63666;52.284;20.890;2023-07-20T06:10:20;5.60;;;3.50;;
41141;SDS011;63666;52.284;20.890;2023-07-20T06:12:53;6.20;;;3.60;;
41141;SDS011;63666;52.284;20.890;2023-07-20T06:15:28;5.60;;;3.20;;
41141;SDS011;63666;52.284;20.890;2023-07-20T06:18:03;5.40;;;3.20;;
41141;SDS011;63666;52.284;20.890;2023-07-20T06:20:36;5.40;;;2.90;;
41141;SDS011;63666;52.284;20.890;2023-07-20T06:23:10;5.20;;;3.10;;
41141;SDS011;63666;52.284;20.890;2023-07-20T06:25:45;5.50;;;3.30;;
41141;SDS011;63666;52.284;20.890;2023-07-20T06:28:19;5.60;;;3.60;;
41141;SDS011;63666;52.284;20.890;2023-07-20T06:30:54;5.20;;;3.50;;
41141;SDS011;63666;52.284;20.890;2023-07-20T06:33:33;5.50;;;3.40;;
41141;SDS011;63666;52.284;20.890;2023-07-20T06:36:07;6.80;;;3.80;;
41141;SDS011;63666;52.284;20.890;2023-07-20T06:38:41;5.80;;;3.60;;
41141;SDS011;63666;52.284;20.890;2023-07-20T06:41:35;6.20;;;3.40;;
41141;SDS011;63666;52.284;20.890;2023-07-20T06:44:12;5.10;;;3.50;;
41141;SDS011;63666;52.284;20.890;2023-07-20T06:46:47;6.00;;;3.50;;
41141;SDS011;63666;52.284;20.890;2023-07-20T06:49:27;4.90;;;3.00;;
41141;SDS011;63666;52.284;20.890;2023-07-20T06:52:01;4.60;;;2.80;;
41141;SDS011;63666;52.284;20.890;2023-07-20T06:54:36;5.70;;;3.00;;
41141;SDS011;63666;52.284;20.890;2023-07-20T06:57:15;6.10;;;3.70;;
41141;SDS011;63666;52.284;20.890;2023-07-20T06:59:51;4.80;;;2.90;;
41141;SDS011;63666;52.284;20.890;2023-07-20T07:02:25;5.70;;;3.40;;
41141;SDS011;63666;52.284;20.890;2023-07-20T07:05:01;5.80;;;3.60;;
41141;SDS011;63666;52.284;20.890;2023-07-20T07:07:51;5.00;;;3.10;;
41141;SDS011;63666;52.284;20.890;2023-07-20T07:10:25;5.50;;;3.20;;
41141;SDS011;63666;52.284;20.890;2023-07-20T07:12:59;5.00;;;3.00;;
41141;SDS011;63666;52.284;20.890;2023-07-20T07:15:36;5.50;;;3.40;;
41141;SDS011;63666;52.284;20.890;2023-07-20T07:18:11;5.80;;;4.00;;
41141;SDS011;63666;52.284;20.890;2023-07-20T07:20:53;6.20;;;3.70;;
41141;SDS011;63666;52.284;20.890;2023-07-20T07:23:33;5.30;;;3.70;;
41141;SDS011;63666;52.284;20.890;2023-07-20T07:26:07;5.80;;;3.50;;
41141;SDS011;63666;52.284;20.890;2023-07-20T07:28:41;5.20;;;3.20;;
41141;SDS011;63666;52.284;20.890;2023-07-20T07:31:15;5.90;;;3.50;;
41141;SDS011;63666;52.284;20.890;2023-07-20T07:33:50;6.40;;;3.50;;
41141;SDS011;63666;52.284;20.890;2023-07-20T07:36:24;5.30;;;3.00;;
41141;SDS011;63666;52.284;20.890;2023-07-20T07:38:59;5.70;;;3.70;;
41141;SDS011;63666;52.284;20.890;2023-07-20T07:41:52;5.20;;;3.30;;
41141;SDS011;63666;52.284;20.890;2023-07-20T07:44:29;5.10;;;3.10;;
41141;SDS011;63666;52.284;20.890;2023-07-20T07:47:06;4.80;;;3.20;;
41141;SDS011;63666;52.284;20.890;2023-07-20T07:49:41;5.40;;;3.30;;
41141;SDS011;63666;52.284;20.890;2023-07-20T07:52:17;5.20;;;3.20;;
41141;SDS011;63666;52.284;20.890;2023-07-20T07:54:52;4.50;;;3.00;;
41141;SDS011;63666;52.284;20.890;2023-07-20T07:57:28;4.80;;;3.00;;
41141;SDS011;63666;52.284;20.890;2023-07-20T08:00:03;5.60;;;2.90;;
41141;SDS011;63666;52.284;20.890;2023-07-20T08:02:43;4.00;;;2.40;;
41141;SDS011;63666;52.284;20.890;2023-07-20T08:05:18;5.40;;;2.80;;
41141;SDS011;63666;52.284;20.890;2023-07-20T08:07:51;4.30;;;2.60;;
41141;SDS011;63666;52.284;20.890;2023-07-20T08:10:25;4.50;;;2.50;;
41141;SDS011;63666;52.284;20.890;2023-07-20T08:12:59;4.00;;;2.30;;
41141;SDS011;63666;52.284;20.890;2023-07-20T08:15:33;4.20;;;2.10;;
41141;SDS011;63666;52.284;20.890;2023-07-20T08:18:07;5.20;;;2.20;;
41141;SDS011;63666;52.284;20.890;2023-07-20T08:20:45;4.70;;;2.40;;
41141;SDS011;63666;52.284;20.890;2023-07-20T08:23:20;4.10;;;2.40;;
41141;SDS011;63666;52.284;20.890;2023-07-20T08:25:56;4.30;;;2.50;;
41141;SDS011;63666;52.284;20.890;2023-07-20T08:28:30;4.60;;;2.40;;
41141;SDS011;63666;52.284;20.890;2023-07-20T08:31:05;4.60;;;2.40;;
41141;SDS011;63666;52.284;20.890;2023-07-20T08:33:39;5.30;;;2.50;;
41141;SDS011;63666;52.284;20.890;2023-07-20T08:36:14;5.30;;;2.30;;
41141;SDS011;63666;52.284;20.890;2023-07-20T08:38:48;4.10;;;2.00;;
41141;SDS011;63666;52.284;20.890;2023-07-20T08:41:22;5.10;;;2.40;;
41141;SDS011;63666;52.284;20.890;2023-07-20T08:43:56;4.50;;;2.40;;
41141;SDS011;63666;52.284;20.890;2023-07-20T08:46:31;4.90;;;2.40;;
41141;SDS011;63666;52.284;20.890;2023-07-20T08:49:06;4.20;;;2.70;;
41141;SDS011;63666;52.284;20.890;2023-07-20T08:51:40;5.40;;;2.90;;
41141;SDS011;63666;52.284;20.890;2023-07-20T08:54:18;4.90;;;2.90;;
41141;SDS011;63666;52.284;20.890;2023-07-20T08:56:55;4.50;;;2.70;;
41141;SDS011;63666;52.284;20.890;2023-07-20T08:59:34;4.80;;;2.40;;
41141;SDS011;63666;52.284;20.890;2023-07-20T09:02:15;5.40;;;2.50;;
41141;SDS011;63666;52.284;20.890;2023-07-20T09:04:50;4.20;;;2.20;;
41141;SDS011;63666;52.284;20.890;2023-07-20T09:07:25;4.70;;;2.40;;
41141;SDS011;63666;52.284;20.890;2023-07-20T09:10:00;4.60;;;2.50;;
41141;SDS011;63666;52.284;20.890;2023-07-20T09:12:38;4.50;;;2.20;;
41141;SDS011;63666;52.284;20.890;2023-07-20T09:15:14;4.60;;;2.20;;
41141;SDS011;63666;52.284;20.890;2023-07-20T09:17:49;4.10;;;2.40;;
41141;SDS011;63666;52.284;20.890;2023-07-20T09:20:25;4.50;;;2.20;;
41141;SDS011;63666;52.284;20.890;2023-07-20T09:22:59;5.60;;;2.10;;
41141;SDS011;63666;52.284;20.890;2023-07-20T09:25:33;4.00;;;2.30;;
41141;SDS011;63666;52.284;20.890;2023-07-20T09:28:10;4.10;;;2.10;;
41141;SDS011;63666;52.284;20.890;2023-07-20T09:30:44;4.90;;;2.10;;
41141;SDS011;63666;52.284;20.890;2023-07-20T09:33:24;3.90;;;2.10;;
41141;SDS011;63666;52.284;20.890;2023-07-20T09:36:04;3.90;;;2.20;;
41141;SDS011;63666;52.284;20.890;2023-07-20T09:39:00;4.40;;;2.20;;
41141;SDS011;63666;52.284;20.890;2023-07-20T09:41:42;4.20;;;2.20;;
41141;SDS011;63666;52.284;20.890;2023-07-20T09:46:52;4.40;;;1.90;;
41141;SDS011;63666;52.284;20.890;2023-07-20T09:49:29;4.70;;;2.10;;
41141;SDS011;63666;52.284;20.890;2023-07-20T09:52:23;4.00;;;1.90;;
41141;SDS011;63666;52.284;20.890;2023-07-20T09:55:01;4.10;;;2.00;;
41141;SDS011;63666;52.284;20.890;2023-07-20T09:57:37;4.10;;;2.20;;
41141;SDS011;63666;52.284;20.890;2023-07-20T10:00:12;3.90;;;2.00;;
41141;SDS011;63666;52.284;20.890;2023-07-20T10:02:51;4.00;;;2.10;;
41141;SDS011;63666;52.284;20.890;2023-07-20T10:05:26;4.80;;;2.20;;
41141;SDS011;63666;52.284;20.890;2023-07-20T10:08:03;4.60;;;1.90;;
41141;SDS011;63666;52.284;20.890;2023-07-20T10:10:42;4.20;;;2.00;;
41141;SDS011;63666;52.284;20.890;2023-07-20T10:13:21;4.70;;;2.30;;
41141;SDS011;63666;52.284;20.890;2023-07-20T10:16:01;3.80;;;1.80;;
41141;SDS011;63666;52.284;20.890;2023-07-20T10:18:45;4.00;;;2.00;;
41141;SDS011;63666;52.284;20.890;2023-07-20T10:21:23;4.10;;;2.10;;
41141;SDS011;63666;52.284;20.890;2023-07-20T10:24:00;4.20;;;2.00;;
41141;SDS011;63666;52.284;20.890;2023-07-20T10:26:35;4.60;;;2.20;;
41141;SDS011;63666;52.284;20.890;2023-07-20T10:29:13;3.70;;;1.90;;
41141;SDS011;63666;52.284;20.890;2023-07-20T10:31:48;4.40;;;1.90;;
41141;SDS011;63666;52.284;20.890;2023-07-20T10:34:25;8.30;;;4.10;;
41141;SDS011;63666;52.284;20.890;2023-07-20T10:37:00;7.00;;;3.20;;
41141;SDS011;63666;52.284;20.890;2023-07-20T10:39:34;4.20;;;2.20;;
41141;SDS011;63666;52.284;20.890;2023-07-20T10:42:10;4.50;;;2.10;;
41141;SDS011;63666;52.284;20.890;2023-07-20T10:44:45;4.00;;;2.00;;
41141;SDS011;63666;52.284;20.890;2023-07-20T10:47:19;3.70;;;1.80;;
41141;SDS011;63666;52.284;20.890;2023-07-20T10:50:01;4.40;;;2.20;;
41141;SDS011;63666;52.284;20.890;2023-07-20T10:52:41;4.10;;;2.30;;
41141;SDS011;63666;52.284;20.890;2023-07-20T10:55:17;3.70;;;2.10;;
41141;SDS011;63666;52.284;20.890;2023-07-20T10:58:10;3.90;;;1.70;;
41141;SDS011;63666;52.284;20.890;2023-07-20T11:01:02;3.30;;;1.70;;
41141;SDS011;63666;52.284;20.890;2023-07-20T11:06:32;3.90;;;1.80;;
41141;SDS011;63666;52.284;20.890;2023-07-20T11:09:10;3.80;;;1.80;;
41141;SDS011;63666;52.284;20.890;2023-07-20T11:11:46;4.00;;;1.80;;
41141;SDS011;63666;52.284;20.890;2023-07-20T11:14:24;4.20;;;2.10;;
41141;SDS011;63666;52.284;20.890;2023-07-20T11:17:12;3.80;;;1.90;;
41141;SDS011;63666;52.284;20.890;2023-07-20T11:19:50;3.60;;;1.90;;
41141;SDS011;63666;52.284;20.890;2023-07-20T11:22:32;3.20;;;1.90;;
41141;SDS011;63666;52.284;20.890;2023-07-20T11:25:11;3.50;;;1.80;;
41141;SDS011;63666;52.284;20.890;2023-07-20T11:27:47;3.40;;;1.70;;
41141;SDS011;63666;52.284;20.890;2023-07-20T11:30:20;3.70;;;1.80;;
41141;SDS011;63666;52.284;20.890;2023-07-20T11:32:55;3.20;;;1.70;;
41141;SDS011;63666;52.284;20.890;2023-07-20T11:35:28;3.60;;;1.70;;
41141;SDS011;63666;52.284;20.890;2023-07-20T11:38:02;4.10;;;1.80;;
41141;SDS011;63666;52.284;20.890;2023-07-20T11:40:38;3.40;;;1.70;;
41141;SDS011;63666;52.284;20.890;2023-07-20T11:43:16;3.50;;;2.00;;
41141;SDS011;63666;52.284;20.890;2023-07-20T11:45:51;3.30;;;1.80;;
41141;SDS011;63666;52.284;20.890;2023-07-20T11:48:25;3.70;;;1.80;;
41141;SDS011;63666;52.284;20.890;2023-07-20T11:50:59;3.20;;;1.70;;
41141;SDS011;63666;52.284;20.890;2023-07-20T11:53:32;4.30;;;1.80;;
41141;SDS011;63666;52.284;20.890;2023-07-20T11:56:06;3.20;;;1.70;;
41141;SDS011;63666;52.284;20.890;2023-07-20T11:58:44;3.40;;;1.80;;
41141;SDS011;63666;52.284;20.890;2023-07-20T12:01:18;3.50;;;1.60;;
41141;SDS011;63666;52.284;20.890;2023-07-20T12:03:52;3.10;;;1.60;;
41141;SDS011;63666;52.284;20.890;2023-07-20T12:06:28;3.30;;;1.70;;
41141;SDS011;63666;52.284;20.890;2023-07-20T12:09:03;3.00;;;1.70;;
41141;SDS011;63666;52.284;20.890;2023-07-20T12:11:38;3.50;;;1.90;;
41141;SDS011;63666;52.284;20.890;2023-07-20T12:14:14;3.50;;;1.90;;
41141;SDS011;63666;52.284;20.890;2023-07-20T12:16:53;3.30;;;1.70;;
41141;SDS011;63666;52.284;20.890;2023-07-20T12:19:28;3.50;;;1.80;;
41141;SDS011;63666;52.284;20.890;2023-07-20T12:22:05;3.90;;;1.80;;
41141;SDS011;63666;52.284;20.890;2023-07-20T12:24:39;3.20;;;1.90;;
41141;SDS011;63666;52.284;20.890;2023-07-20T12:27:16;3.50;;;1.80;;
41141;SDS011;63666;52.284;20.890;2023-07-20T12:29:50;3.10;;;1.70;;
41141;SDS011;63666;52.284;20.890;2023-07-20T12:32:25;3.50;;;1.80;;
41141;SDS011;63666;52.284;20.890;2023-07-20T12:34:59;3.30;;;1.70;;
41141;SDS011;63666;52.284;20.890;2023-07-20T12:37:33;3.10;;;1.60;;
41141;SDS011;63666;52.284;20.890;2023-07-20T12:40:09;3.20;;;1.70;;
41141;SDS011;63666;52.284;20.890;2023-07-20T12:42:43;2.80;;;1.50;;
41141;SDS011;63666;52.284;20.890;2023-07-20T12:45:17;3.30;;;1.70;;
41141;SDS011;63666;52.284;20.890;2023-07-20T12:47:50;3.90;;;1.80;;
41141;SDS011;63666;52.284;20.890;2023-07-20T12:50:25;3.60;;;1.90;;
41141;SDS011;63666;52.284;20.890;2023-07-20T12:52:59;3.90;;;2.10;;
41141;SDS011;63666;52.284;20.890;2023-07-20T12:55:34;3.20;;;1.80;;
41141;SDS011;63666;52.284;20.890;2023-07-20T12:58:11;4.10;;;2.10;;
41141;SDS011;63666;52.284;20.890;2023-07-20T13:00:45;3.50;;;2.10;;
41141;SDS011;63666;52.284;20.890;2023-07-20T13:03:20;4.50;;;2.20;;
41141;SDS011;63666;52.284;20.890;2023-07-20T13:05:57;3.50;;;2.00;;
41141;SDS011;63666;52.284;20.890;2023-07-20T13:08:34;4.80;;;2.20;;
41141;SDS011;63666;52.284;20.890;2023-07-20T13:11:08;3.80;;;2.00;;
41141;SDS011;63666;52.284;20.890;2023-07-20T13:13:42;4.40;;;2.20;;
41141;SDS011;63666;52.284;20.890;2023-07-20T13:16:17;3.70;;;1.90;;
41141;SDS011;63666;52.284;20.890;2023-07-20T13:18:51;3.50;;;2.00;;
41141;SDS011;63666;52.284;20.890;2023-07-20T13:21:25;3.50;;;2.00;;
41141;SDS011;63666;52.284;20.890;2023-07-20T13:24:00;3.50;;;2.00;;
41141;SDS011;63666;52.284;20.890;2023-07-20T13:26:35;3.50;;;1.90;;
41141;SDS011;63666;52.284;20.890;2023-07-20T13:29:08;3.60;;;2.00;;
41141;SDS011;63666;52.284;20.890;2023-07-20T13:31:43;3.70;;;2.10;;
41141;SDS011;63666;52.284;20.890;2023-07-20T13:34:19;3.40;;;2.10;;
41141;SDS011;63666;52.284;20.890;2023-07-20T13:36:55;4.00;;;2.20;;
41141;SDS011;63666;52.284;20.890;2023-07-20T13:39:29;4.30;;;2.30;;
41141;SDS011;63666;52.284;20.890;2023-07-20T13:42:04;4.00;;;2.30;;
41141;SDS011;63666;52.284;20.890;2023-07-20T13:44:41;4.10;;;2.50;;
41141;SDS011;63666;52.284;20.890;2023-07-20T13:47:16;4.30;;;2.50;;
41141;SDS011;63666;52.284;20.890;2023-07-20T13:49:52;3.30;;;2.00;;
41141;SDS011;63666;52.284;20.890;2023-07-20T13:52:30;4.30;;;2.30;;
41141;SDS011;63666;52.284;20.890;2023-07-20T13:55:08;4.10;;;2.20;;
41141;SDS011;63666;52.284;20.890;2023-07-20T13:57:42;4.40;;;2.50;;
41141;SDS011;63666;52.284;20.890;2023-07-20T14:00:17;3.90;;;2.50;;
41141;SDS011;63666;52.284;20.890;2023-07-20T14:02:54;4.10;;;2.60;;
41141;SDS011;63666;52.284;20.890;2023-07-20T14:05:31;3.50;;;2.20;;
41141;SDS011;63666;52.284;20.890;2023-07-20T14:08:09;4.60;;;2.80;;
41141;SDS011;63666;52.284;20.890;2023-07-20T14:10:42;3.60;;;2.20;;
41141;SDS011;63666;52.284;20.890;2023-07-20T14:13:20;5.00;;;2.20;;
41141;SDS011;63666;52.284;20.890;2023-07-20T14:16:08;3.70;;;2.30;;
41141;SDS011;63666;52.284;20.890;2023-07-20T14:18:41;4.00;;;2.60;;
41141;SDS011;63666;52.284;20.890;2023-07-20T14:21:20;3.90;;;2.40;;
41141;SDS011;63666;52.284;20.890;2023-07-20T14:23:55;3.90;;;2.50;;
41141;SDS011;63666;52.284;20.890;2023-07-20T14:26:32;3.70;;;2.10;;
41141;SDS011;63666;52.284;20.890;2023-07-20T14:29:06;3.50;;;2.00;;
41141;SDS011;63666;52.284;20.890;2023-07-20T14:31:40;4.10;;;1.90;;
41141;SDS011;63666;52.284;20.890;2023-07-20T14:34:16;3.30;;;1.60;;
41141;SDS011;63666;52.284;20.890;2023-07-20T14:36:50;3.10;;;1.60;;
41141;SDS011;63666;52.284;20.890;2023-07-20T14:39:24;3.70;;;2.00;;
41141;SDS011;63666;52.284;20.890;2023-07-20T14:41:58;3.50;;;1.90;;
41141;SDS011;63666;52.284;20.890;2023-07-20T14:44:32;3.40;;;1.90;;
41141;SDS011;63666;52.284;20.890;2023-07-20T14:47:08;3.40;;;1.80;;
41141;SDS011;63666;52.284;20.890;2023-07-20T14:49:45;3.80;;;1.60;;
41141;SDS011;63666;52.284;20.890;2023-07-20T14:52:19;3.70;;;1.70;;
41141;SDS011;63666;52.284;20.890;2023-07-20T14:54:58;3.40;;;1.80;;
41141;SDS011;63666;52.284;20.890;2023-07-20T14:57:32;3.60;;;1.80;;
41141;SDS011;63666;52.284;20.890;2023-07-20T15:00:08;3.30;;;1.80;;
41141;SDS011;63666;52.284;20.890;2023-07-20T15:02:44;4.00;;;1.80;;
41141;SDS011;63666;52.284;20.890;2023-07-20T15:05:23;3.60;;;1.90;;
41141;SDS011;63666;52.284;20.890;2023-07-20T15:07:58;4.10;;;1.70;;
41141;SDS011;63666;52.284;20.890;2023-07-20T15:10:32;3.30;;;1.40;;
41141;SDS011;63666;52.284;20.890;2023-07-20T15:13:06;3.30;;;1.40;;
41141;SDS011;63666;52.284;20.890;2023-07-20T15:15:41;3.10;;;1.50;;
41141;SDS011;63666;52.284;20.890;2023-07-20T15:18:15;2.50;;;1.40;;
41141;SDS011;63666;52.284;20.890;2023-07-20T15:20:57;3.00;;;1.40;;
41141;SDS011;63666;52.284;20.890;2023-07-20T15:23:31;2.90;;;1.40;;
41141;SDS011;63666;52.284;20.890;2023-07-20T15:26:05;2.50;;;1.30;;
41141;SDS011;63666;52.284;20.890;2023-07-20T15:28:39;2.70;;;1.30;;
41141;SDS011;63666;52.284;20.890;2023-07-20T15:31:13;3.80;;;1.40;;